sensor_id;sensor_type;location;lat;lon;timestamp;pressure;altitude;pressure_sealevel;temperature;humidity
43488;BME280;29078;41.932;25.554;2022-09-28T00:01:13;98385.03;;;20.26;61.83
43488;BME280;29078;41.932;25.554;2022-09-28T00:03:39;98430.34;;;20.43;61.87
43488;BME280;29078;41.932;25.554;2022-09-28T00:06:07;98377.25;;;20.14;61.86
43488;BME280;29078;41.932;25.554;2022-09-28T00:08:36;98461.44;;;20.64;61.98
43488;BME280;29078;41.932;25.554;2022-09-28T00:11:03;98389.06;;;20.13;61.94
43488;BME280;29078;41.932;25.554;2022-09-28T00:13:29;98430.59;;;20.36;62.01
43488;BME280;29078;41.932;25.554;2022-09-28T00:16:04;98456.91;;;20.49;62.05
43488;BME280;29078;41.932;25.554;2022-09-28T00:18:31;98412.91;;;20.15;62.32
43488;BME280;29078;41.932;25.554;2022-09-28T00:21:09;98415.59;;;20.10;62.41
43488;BME280;29078;41.932;25.554;2022-09-28T00:23:35;98468.66;;;20.33;62.41
43488;BME280;29078;41.932;25.554;2022-09-28T00:26:25;98399.72;;;19.93;62.38
43488;BME280;29078;41.932;25.554;2022-09-28T00:28:52;98349.28;;;19.49;62.64
43488;BME280;29078;41.932;25.554;2022-09-28T00:31:17;98387.94;;;19.74;62.82
43488;BME280;29078;41.932;25.554;2022-09-28T00:33:43;98459.28;;;20.15;62.64
43488;BME280;29078;41.932;25.554;2022-09-28T00:36:09;98394.91;;;19.80;62.55
43488;BME280;29078;41.932;25.554;2022-09-28T00:38:35;98392.22;;;19.80;62.40
43488;BME280;29078;41.932;25.554;2022-09-28T00:41:00;98445.06;;;20.10;62.52
43488;BME280;29078;41.932;25.554;2022-09-28T00:43:26;98465.44;;;20.21;62.67
43488;BME280;29078;41.932;25.554;2022-09-28T00:46:00;98444.53;;;20.08;62.78
43488;BME280;29078;41.932;25.554;2022-09-28T00:48:29;98438.84;;;19.94;62.79
43488;BME280;29078;41.932;25.554;2022-09-28T00:50:59;98475.84;;;20.02;62.88
43488;BME280;29078;41.932;25.554;2022-09-28T00:53:30;98427.28;;;19.73;62.95
43488;BME280;29078;41.932;25.554;2022-09-28T00:56:00;98316.75;;;19.00;63.00
43488;BME280;29078;41.932;25.554;2022-09-28T00:58:34;98471.81;;;19.99;63.06
43488;BME280;29078;41.932;25.554;2022-09-28T01:01:00;98421.38;;;19.61;63.06
43488;BME280;29078;41.932;25.554;2022-09-28T01:03:27;98464.84;;;19.93;62.86
43488;BME280;29078;41.932;25.554;2022-09-28T01:05:54;98469.38;;;19.93;63.02
43488;BME280;29078;41.932;25.554;2022-09-28T01:08:21;98396.94;;;19.47;62.90
43488;BME280;29078;41.932;25.554;2022-09-28T01:10:48;98228.78;;;18.46;62.65
43488;BME280;29078;41.932;25.554;2022-09-28T01:13:14;98366.41;;;19.38;62.83
43488;BME280;29078;41.932;25.554;2022-09-28T01:21:58;98414.94;;;19.62;62.82
43488;BME280;29078;41.932;25.554;2022-09-28T01:27:05;98379.19;;;19.26;63.03
43488;BME280;29078;41.932;25.554;2022-09-28T01:29:45;98342.69;;;18.99;62.83
43488;BME280;29078;41.932;25.554;2022-09-28T01:35:17;98389.31;;;19.14;63.14
43488;BME280;29078;41.932;25.554;2022-09-28T01:37:50;98393.81;;;19.03;63.40
43488;BME280;29078;41.932;25.554;2022-09-28T01:40:18;98387.09;;;19.00;63.28
43488;BME280;29078;41.932;25.554;2022-09-28T01:42:47;98454.75;;;19.43;63.26
43488;BME280;29078;41.932;25.554;2022-09-28T01:45:27;98446.44;;;19.40;63.31
43488;BME280;29078;41.932;25.554;2022-09-28T01:47:58;98350.28;;;18.65;63.56
43488;BME280;29078;41.932;25.554;2022-09-28T01:50:27;98460.09;;;19.38;63.15
43488;BME280;29078;41.932;25.554;2022-09-28T01:53:00;98384.16;;;18.97;63.24
43488;BME280;29078;41.932;25.554;2022-09-28T01:55:33;98444.06;;;19.48;63.00
43488;BME280;29078;41.932;25.554;2022-09-28T01:58:14;98403.75;;;19.13;62.95
43488;BME280;29078;41.932;25.554;2022-09-28T02:00:46;98404.81;;;19.12;63.00
43488;BME280;29078;41.932;25.554;2022-09-28T02:03:19;98412.06;;;19.16;62.83
43488;BME280;29078;41.932;25.554;2022-09-28T02:05:52;98453.06;;;19.32;62.93
43488;BME280;29078;41.932;25.554;2022-09-28T02:08:24;98425.94;;;19.13;63.07
43488;BME280;29078;41.932;25.554;2022-09-28T02:11:13;98467.78;;;19.29;63.04
43488;BME280;29078;41.932;25.554;2022-09-28T02:13:42;98452.47;;;19.20;63.26
43488;BME280;29078;41.932;25.554;2022-09-28T02:16:49;98462.66;;;19.23;63.34
43488;BME280;29078;41.932;25.554;2022-09-28T02:19:18;98456.81;;;19.31;62.79
43488;BME280;29078;41.932;25.554;2022-09-28T02:24:36;98436.66;;;19.13;62.83
43488;BME280;29078;41.932;25.554;2022-09-28T02:27:04;98382.66;;;18.69;62.88
43488;BME280;29078;41.932;25.554;2022-09-28T02:29:33;98440.63;;;19.05;62.95
43488;BME280;29078;41.932;25.554;2022-09-28T02:31:58;98405.47;;;18.82;62.92
43488;BME280;29078;41.932;25.554;2022-09-28T02:34:24;98425.78;;;18.83;63.05
43488;BME280;29078;41.932;25.554;2022-09-28T02:36:50;98405.94;;;18.68;62.93
43488;BME280;29078;41.932;25.554;2022-09-28T02:39:16;98404.63;;;18.76;63.01
43488;BME280;29078;41.932;25.554;2022-09-28T02:50:02;98374.13;;;18.72;62.47
43488;BME280;29078;41.932;25.554;2022-09-28T03:00:30;98427.81;;;19.13;62.56
43488;BME280;29078;41.932;25.554;2022-09-28T03:05:58;98401.50;;;18.89;62.47
43488;BME280;29078;41.932;25.554;2022-09-28T03:08:54;98459.44;;;19.21;62.68
43488;BME280;29078;41.932;25.554;2022-09-28T03:11:26;98380.25;;;18.67;62.41
43488;BME280;29078;41.932;25.554;2022-09-28T03:13:54;98379.44;;;18.67;62.30
43488;BME280;29078;41.932;25.554;2022-09-28T03:16:20;98416.22;;;18.92;62.15
43488;BME280;29078;41.932;25.554;2022-09-28T03:18:46;98469.34;;;19.20;62.32
43488;BME280;29078;41.932;25.554;2022-09-28T03:21:13;98380.22;;;18.62;62.18
43488;BME280;29078;41.932;25.554;2022-09-28T03:23:39;98373.75;;;18.58;62.23
43488;BME280;29078;41.932;25.554;2022-09-28T03:26:07;98468.19;;;19.06;62.33
43488;BME280;29078;41.932;25.554;2022-09-28T03:28:32;98420.13;;;18.74;62.35
43488;BME280;29078;41.932;25.554;2022-09-28T03:31:00;98400.81;;;18.62;62.60
43488;BME280;29078;41.932;25.554;2022-09-28T03:33:26;98431.38;;;18.76;62.31
43488;BME280;29078;41.932;25.554;2022-09-28T03:35:51;98471.34;;;18.98;62.37
43488;BME280;29078;41.932;25.554;2022-09-28T03:38:18;98484.81;;;19.13;62.46
43488;BME280;29078;41.932;25.554;2022-09-28T03:40:51;98435.19;;;18.85;62.22
43488;BME280;29078;41.932;25.554;2022-09-28T03:43:17;98460.69;;;19.03;62.17
43488;BME280;29078;41.932;25.554;2022-09-28T03:45:42;98394.13;;;18.64;62.00
43488;BME280;29078;41.932;25.554;2022-09-28T03:48:08;98348.16;;;18.30;61.96
43488;BME280;29078;41.932;25.554;2022-09-28T03:50:33;98385.28;;;18.27;62.44
43488;BME280;29078;41.932;25.554;2022-09-28T03:53:02;98431.31;;;18.66;62.33
43488;BME280;29078;41.932;25.554;2022-09-28T03:55:28;98494.09;;;19.00;62.51
43488;BME280;29078;41.932;25.554;2022-09-28T03:57:53;98456.47;;;18.70;62.47
43488;BME280;29078;41.932;25.554;2022-09-28T04:00:20;98416.13;;;18.45;62.17
43488;BME280;29078;41.932;25.554;2022-09-28T04:02:45;98397.91;;;18.36;62.04
43488;BME280;29078;41.932;25.554;2022-09-28T04:05:11;98421.53;;;18.55;61.88
43488;BME280;29078;41.932;25.554;2022-09-28T04:07:36;98496.28;;;19.03;61.77
43488;BME280;29078;41.932;25.554;2022-09-28T04:10:01;98495.63;;;18.86;62.08
43488;BME280;29078;41.932;25.554;2022-09-28T04:12:27;98401.25;;;18.22;62.08
43488;BME280;29078;41.932;25.554;2022-09-28T04:14:52;98489.94;;;18.78;62.20
43488;BME280;29078;41.932;25.554;2022-09-28T04:17:18;98401.47;;;18.15;62.02
43488;BME280;29078;41.932;25.554;2022-09-28T04:19:43;98511.81;;;18.69;62.24
43488;BME280;29078;41.932;25.554;2022-09-28T04:22:08;98408.84;;;18.03;62.18
43488;BME280;29078;41.932;25.554;2022-09-28T04:24:34;98415.09;;;18.14;62.13
43488;BME280;29078;41.932;25.554;2022-09-28T04:26:59;98422.28;;;18.13;62.14
43488;BME280;29078;41.932;25.554;2022-09-28T04:29:43;98404.28;;;17.98;62.09
43488;BME280;29078;41.932;25.554;2022-09-28T04:32:09;98511.03;;;18.47;61.92
43488;BME280;29078;41.932;25.554;2022-09-28T04:34:35;98437.56;;;18.18;61.68
43488;BME280;29078;41.932;25.554;2022-09-28T04:37:01;98387.53;;;17.81;61.75
43488;BME280;29078;41.932;25.554;2022-09-28T04:39:26;98435.34;;;18.09;61.68
43488;BME280;29078;41.932;25.554;2022-09-28T04:41:51;98419.41;;;17.88;61.88
43488;BME280;29078;41.932;25.554;2022-09-28T04:44:17;98259.78;;;16.87;61.92
43488;BME280;29078;41.932;25.554;2022-09-28T04:46:42;98436.91;;;18.05;62.03
43488;BME280;29078;41.932;25.554;2022-09-28T04:49:09;98476.06;;;18.22;61.97
43488;BME280;29078;41.932;25.554;2022-09-28T04:51:34;98469.81;;;18.11;61.86
43488;BME280;29078;41.932;25.554;2022-09-28T04:54:00;98460.06;;;17.95;62.11
43488;BME280;29078;41.932;25.554;2022-09-28T04:56:25;98457.28;;;17.85;62.24
43488;BME280;29078;41.932;25.554;2022-09-28T04:58:51;98479.09;;;18.03;62.04
43488;BME280;29078;41.932;25.554;2022-09-28T05:01:17;98395.97;;;17.46;62.08
43488;BME280;29078;41.932;25.554;2022-09-28T05:03:43;98552.91;;;18.36;61.78
43488;BME280;29078;41.932;25.554;2022-09-28T05:06:12;98522.19;;;18.12;61.84
43488;BME280;29078;41.932;25.554;2022-09-28T05:08:39;98551.59;;;18.39;62.01
43488;BME280;29078;41.932;25.554;2022-09-28T05:11:06;98471.00;;;17.93;61.87
43488;BME280;29078;41.932;25.554;2022-09-28T05:13:33;98537.41;;;18.38;61.79
43488;BME280;29078;41.932;25.554;2022-09-28T05:16:04;98371.59;;;17.37;61.67
43488;BME280;29078;41.932;25.554;2022-09-28T05:18:30;98440.88;;;17.76;61.70
43488;BME280;29078;41.932;25.554;2022-09-28T05:20:55;98444.22;;;17.88;61.48
43488;BME280;29078;41.932;25.554;2022-09-28T05:23:21;98452.25;;;17.88;61.50
43488;BME280;29078;41.932;25.554;2022-09-28T05:25:46;98466.81;;;18.02;61.37
43488;BME280;29078;41.932;25.554;2022-09-28T05:28:12;98551.72;;;18.54;61.34
43488;BME280;29078;41.932;25.554;2022-09-28T05:30:37;98556.97;;;18.66;61.37
43488;BME280;29078;41.932;25.554;2022-09-28T05:33:03;98449.97;;;18.02;61.32
43488;BME280;29078;41.932;25.554;2022-09-28T05:35:28;98452.44;;;18.08;61.33
43488;BME280;29078;41.932;25.554;2022-09-28T05:37:54;98524.19;;;18.54;61.29
43488;BME280;29078;41.932;25.554;2022-09-28T05:40:20;98515.00;;;18.66;61.35
43488;BME280;29078;41.932;25.554;2022-09-28T05:42:45;98507.91;;;18.55;61.27
43488;BME280;29078;41.932;25.554;2022-09-28T05:45:11;98518.03;;;18.80;61.18
43488;BME280;29078;41.932;25.554;2022-09-28T05:47:41;98559.44;;;19.10;61.07
43488;BME280;29078;41.932;25.554;2022-09-28T05:50:08;98534.25;;;19.00;60.87
43488;BME280;29078;41.932;25.554;2022-09-28T05:52:38;98452.16;;;18.64;60.93
43488;BME280;29078;41.932;25.554;2022-09-28T05:55:05;98556.84;;;19.20;60.83
43488;BME280;29078;41.932;25.554;2022-09-28T05:57:31;98547.53;;;19.27;61.15
43488;BME280;29078;41.932;25.554;2022-09-28T05:59:56;98394.94;;;18.33;60.88
43488;BME280;29078;41.932;25.554;2022-09-28T06:02:22;98570.16;;;19.47;60.92
43488;BME280;29078;41.932;25.554;2022-09-28T06:04:47;98582.53;;;19.53;60.80
43488;BME280;29078;41.932;25.554;2022-09-28T06:07:15;98570.50;;;19.60;60.77
43488;BME280;29078;41.932;25.554;2022-09-28T06:09:40;98485.28;;;19.00;60.93
43488;BME280;29078;41.932;25.554;2022-09-28T06:12:06;98513.00;;;19.26;60.91
43488;BME280;29078;41.932;25.554;2022-09-28T06:14:31;98462.00;;;19.00;60.84
43488;BME280;29078;41.932;25.554;2022-09-28T06:16:57;98513.91;;;19.42;60.91
43488;BME280;29078;41.932;25.554;2022-09-28T06:19:22;98522.25;;;19.50;60.80
43488;BME280;29078;41.932;25.554;2022-09-28T06:21:47;98575.75;;;19.92;60.59
43488;BME280;29078;41.932;25.554;2022-09-28T06:24:13;98576.03;;;19.96;60.64
43488;BME280;29078;41.932;25.554;2022-09-28T06:26:38;98549.41;;;19.74;60.73
43488;BME280;29078;41.932;25.554;2022-09-28T06:29:04;98613.56;;;20.01;60.73
43488;BME280;29078;41.932;25.554;2022-09-28T06:31:29;98509.22;;;19.64;60.63
43488;BME280;29078;41.932;25.554;2022-09-28T06:33:55;98524.78;;;19.77;60.78
43488;BME280;29078;41.932;25.554;2022-09-28T06:36:21;98546.00;;;19.94;60.76
43488;BME280;29078;41.932;25.554;2022-09-28T06:38:46;98606.97;;;20.24;60.69
43488;BME280;29078;41.932;25.554;2022-09-28T06:41:12;98561.09;;;20.10;60.15
43488;BME280;29078;41.932;25.554;2022-09-28T06:43:38;98555.22;;;20.23;59.92
43488;BME280;29078;41.932;25.554;2022-09-28T06:46:04;98575.41;;;20.41;59.79
43488;BME280;29078;41.932;25.554;2022-09-28T06:48:31;98502.34;;;19.98;59.95
43488;BME280;29078;41.932;25.554;2022-09-28T06:50:58;98564.41;;;20.43;60.09
43488;BME280;29078;41.932;25.554;2022-09-28T06:53:24;98533.28;;;20.31;59.79
43488;BME280;29078;41.932;25.554;2022-09-28T06:55:51;98545.66;;;20.43;59.60
43488;BME280;29078;41.932;25.554;2022-09-28T06:58:18;98587.00;;;20.82;59.69
43488;BME280;29078;41.932;25.554;2022-09-28T07:00:45;98594.78;;;20.89;59.46
43488;BME280;29078;41.932;25.554;2022-09-28T07:03:17;98479.38;;;20.33;59.25
43488;BME280;29078;41.932;25.554;2022-09-28T07:05:46;98594.53;;;21.06;59.05
43488;BME280;29078;41.932;25.554;2022-09-28T07:08:13;98551.34;;;20.82;58.59
43488;BME280;29078;41.932;25.554;2022-09-28T07:10:46;98539.78;;;20.81;58.11
43488;BME280;29078;41.932;25.554;2022-09-28T07:13:13;98589.41;;;21.19;58.35
43488;BME280;29078;41.932;25.554;2022-09-28T07:15:39;98533.09;;;20.89;58.11
43488;BME280;29078;41.932;25.554;2022-09-28T07:18:06;98587.28;;;21.32;57.80
43488;BME280;29078;41.932;25.554;2022-09-28T07:20:35;98500.34;;;20.82;57.82
43488;BME280;29078;41.932;25.554;2022-09-28T07:23:03;98585.91;;;21.44;57.35
43488;BME280;29078;41.932;25.554;2022-09-28T07:25:30;98584.00;;;21.50;57.10
43488;BME280;29078;41.932;25.554;2022-09-28T07:27:57;98429.25;;;20.64;56.82
43488;BME280;29078;41.932;25.554;2022-09-28T07:30:25;98513.72;;;21.22;56.56
43488;BME280;29078;41.932;25.554;2022-09-28T07:32:52;98487.97;;;21.11;56.73
43488;BME280;29078;41.932;25.554;2022-09-28T07:35:17;98535.97;;;21.43;56.70
43488;BME280;29078;41.932;25.554;2022-09-28T07:37:43;98551.78;;;21.60;56.58
43488;BME280;29078;41.932;25.554;2022-09-28T07:40:09;98589.28;;;21.96;56.57
43488;BME280;29078;41.932;25.554;2022-09-28T07:42:53;98583.69;;;21.82;56.59
43488;BME280;29078;41.932;25.554;2022-09-28T07:45:19;98575.81;;;21.96;55.95
43488;BME280;29078;41.932;25.554;2022-09-28T07:47:54;98535.34;;;21.77;55.97
43488;BME280;29078;41.932;25.554;2022-09-28T07:50:20;98488.66;;;21.63;55.78
43488;BME280;29078;41.932;25.554;2022-09-28T07:52:46;98565.78;;;22.22;55.60
43488;BME280;29078;41.932;25.554;2022-09-28T07:55:11;98485.88;;;21.78;55.68
43488;BME280;29078;41.932;25.554;2022-09-28T07:57:37;98479.13;;;21.85;55.21
43488;BME280;29078;41.932;25.554;2022-09-28T08:00:07;98533.06;;;22.09;55.21
43488;BME280;29078;41.932;25.554;2022-09-28T08:02:34;98587.63;;;22.59;54.98
43488;BME280;29078;41.932;25.554;2022-09-28T08:05:00;98479.06;;;21.96;54.83
43488;BME280;29078;41.932;25.554;2022-09-28T08:07:26;98590.81;;;22.66;54.75
43488;BME280;29078;41.932;25.554;2022-09-28T08:09:52;98499.44;;;22.12;54.40
43488;BME280;29078;41.932;25.554;2022-09-28T08:12:18;98587.75;;;22.78;54.31
43488;BME280;29078;41.932;25.554;2022-09-28T08:14:44;98596.88;;;22.87;54.14
43488;BME280;29078;41.932;25.554;2022-09-28T08:17:10;98582.25;;;22.98;54.04
43488;BME280;29078;41.932;25.554;2022-09-28T08:19:35;98533.94;;;22.78;53.70
43488;BME280;29078;41.932;25.554;2022-09-28T08:22:19;98466.41;;;22.45;53.23
43488;BME280;29078;41.932;25.554;2022-09-28T08:24:46;98579.59;;;23.27;52.93
43488;BME280;29078;41.932;25.554;2022-09-28T08:27:13;98514.56;;;22.81;52.77
43488;BME280;29078;41.932;25.554;2022-09-28T08:29:38;98558.03;;;23.27;52.57
43488;BME280;29078;41.932;25.554;2022-09-28T08:32:05;98532.03;;;23.18;52.53
43488;BME280;29078;41.932;25.554;2022-09-28T08:34:33;98574.94;;;23.62;51.95
43488;BME280;29078;41.932;25.554;2022-09-28T08:36:59;98555.84;;;23.58;51.48
43488;BME280;29078;41.932;25.554;2022-09-28T08:39:24;98474.38;;;23.19;51.33
43488;BME280;29078;41.932;25.554;2022-09-28T08:44:24;98559.31;;;23.88;50.22
43488;BME280;29078;41.932;25.554;2022-09-28T08:47:03;98545.41;;;23.99;50.57
43488;BME280;29078;41.932;25.554;2022-09-28T08:49:37;98569.41;;;24.20;50.01
43488;BME280;29078;41.932;25.554;2022-09-28T08:52:17;98564.34;;;24.37;49.87
43488;BME280;29078;41.932;25.554;2022-09-28T08:55:04;98569.28;;;24.49;49.41
43488;BME280;29078;41.932;25.554;2022-09-28T08:57:54;98567.06;;;24.56;48.98
43488;BME280;29078;41.932;25.554;2022-09-28T09:00:31;98547.34;;;24.36;48.53
43488;BME280;29078;41.932;25.554;2022-09-28T09:03:03;98491.69;;;24.22;48.14
43488;BME280;29078;41.932;25.554;2022-09-28T09:05:46;98567.97;;;24.84;46.55
43488;BME280;29078;41.932;25.554;2022-09-28T09:08:36;98573.19;;;24.94;46.36
43488;BME280;29078;41.932;25.554;2022-09-28T09:14:07;98470.03;;;24.64;45.04
43488;BME280;29078;41.932;25.554;2022-09-28T09:16:56;98562.84;;;25.33;45.38
43488;BME280;29078;41.932;25.554;2022-09-28T09:22:07;98539.03;;;25.63;45.12
43488;BME280;29078;41.932;25.554;2022-09-28T09:24:50;98496.97;;;25.57;44.65
43488;BME280;29078;41.932;25.554;2022-09-28T09:30:12;98529.53;;;26.07;44.02
43488;BME280;29078;41.932;25.554;2022-09-28T09:35:37;98440.06;;;25.89;42.79
43488;BME280;29078;41.932;25.554;2022-09-28T09:38:32;98480.03;;;26.42;41.67
43488;BME280;29078;41.932;25.554;2022-09-28T09:44:13;98530.97;;;27.07;38.70
43488;BME280;29078;41.932;25.554;2022-09-28T09:49:44;98536.22;;;27.35;38.39
43488;BME280;29078;41.932;25.554;2022-09-28T09:52:24;98508.63;;;27.33;39.18
43488;BME280;29078;41.932;25.554;2022-09-28T09:57:44;98474.63;;;27.27;37.50
43488;BME280;29078;41.932;25.554;2022-09-28T10:00:15;98481.44;;;27.55;37.51
43488;BME280;29078;41.932;25.554;2022-09-28T10:02:43;98524.00;;;28.03;37.01
43488;BME280;29078;41.932;25.554;2022-09-28T10:12:53;98488.63;;;28.51;35.53
43488;BME280;29078;41.932;25.554;2022-09-28T10:15:28;98508.06;;;28.79;34.51
43488;BME280;29078;41.932;25.554;2022-09-28T10:18:05;98533.00;;;28.98;33.34
43488;BME280;29078;41.932;25.554;2022-09-28T10:20:36;98517.97;;;28.92;32.50
43488;BME280;29078;41.932;25.554;2022-09-28T10:23:05;98472.28;;;28.77;31.78
43488;BME280;29078;41.932;25.554;2022-09-28T10:25:35;98513.81;;;28.95;31.85
43488;BME280;29078;41.932;25.554;2022-09-28T10:28:02;98429.34;;;28.53;31.53
43488;BME280;29078;41.932;25.554;2022-09-28T10:30:35;98318.41;;;28.08;31.25
43488;BME280;29078;41.932;25.554;2022-09-28T10:33:32;98481.16;;;29.21;30.95
43488;BME280;29078;41.932;25.554;2022-09-28T10:35:59;98502.38;;;29.74;30.77
43488;BME280;29078;41.932;25.554;2022-09-28T10:38:27;98446.31;;;29.52;30.72
43488;BME280;29078;41.932;25.554;2022-09-28T10:40:54;98497.16;;;29.90;30.61
43488;BME280;29078;41.932;25.554;2022-09-28T10:43:36;98501.59;;;29.94;28.39
43488;BME280;29078;41.932;25.554;2022-09-28T10:46:11;98437.63;;;29.59;29.35
43488;BME280;29078;41.932;25.554;2022-09-28T10:48:53;98433.56;;;29.65;28.23
43488;BME280;29078;41.932;25.554;2022-09-28T10:51:42;98480.31;;;30.17;27.97
43488;BME280;29078;41.932;25.554;2022-09-28T10:56:41;98457.19;;;29.82;29.29
43488;BME280;29078;41.932;25.554;2022-09-28T11:02:00;98431.22;;;29.84;29.52
43488;BME280;29078;41.932;25.554;2022-09-28T11:04:34;98403.97;;;29.63;29.53
43488;BME280;29078;41.932;25.554;2022-09-28T11:07:02;98415.59;;;29.72;29.50
43488;BME280;29078;41.932;25.554;2022-09-28T11:09:31;98449.09;;;29.64;29.83
43488;BME280;29078;41.932;25.554;2022-09-28T11:11:58;98273.72;;;28.06;30.32
43488;BME280;29078;41.932;25.554;2022-09-28T11:14:28;98404.09;;;28.61;30.38
43488;BME280;29078;41.932;25.554;2022-09-28T11:17:26;98449.00;;;28.59;31.61
43488;BME280;29078;41.932;25.554;2022-09-28T11:19:54;98400.16;;;27.98;32.73
43488;BME280;29078;41.932;25.554;2022-09-28T11:24:51;98403.31;;;27.57;34.31
43488;BME280;29078;41.932;25.554;2022-09-28T11:27:24;98426.94;;;27.65;34.89
43488;BME280;29078;41.932;25.554;2022-09-28T11:29:56;98357.41;;;27.04;35.22
43488;BME280;29078;41.932;25.554;2022-09-28T11:32:24;98432.44;;;27.43;35.54
43488;BME280;29078;41.932;25.554;2022-09-28T11:34:55;98442.78;;;27.32;36.31
43488;BME280;29078;41.932;25.554;2022-09-28T11:48:22;98345.78;;;27.03;35.77
43488;BME280;29078;41.932;25.554;2022-09-28T11:51:17;98421.00;;;27.54;35.64
43488;BME280;29078;41.932;25.554;2022-09-28T11:59:04;98352.72;;;26.96;35.53
43488;BME280;29078;41.932;25.554;2022-09-28T12:01:39;98357.50;;;26.90;35.04
43488;BME280;29078;41.932;25.554;2022-09-28T12:04:37;98428.41;;;27.23;35.55
43488;BME280;29078;41.932;25.554;2022-09-28T12:07:18;98396.34;;;26.85;35.64
43488;BME280;29078;41.932;25.554;2022-09-28T12:12:34;98431.81;;;26.98;35.58
43488;BME280;29078;41.932;25.554;2022-09-28T12:15:14;98435.91;;;26.95;35.82
43488;BME280;29078;41.932;25.554;2022-09-28T12:17:49;98425.06;;;26.95;35.31
43488;BME280;29078;41.932;25.554;2022-09-28T12:20:24;98339.28;;;26.42;35.50
43488;BME280;29078;41.932;25.554;2022-09-28T12:23:11;98417.97;;;27.08;35.15
43488;BME280;29078;41.932;25.554;2022-09-28T12:25:42;98420.25;;;27.14;35.46
43488;BME280;29078;41.932;25.554;2022-09-28T12:28:37;98421.84;;;27.15;35.52
43488;BME280;29078;41.932;25.554;2022-09-28T12:31:34;98422.94;;;27.14;34.56
43488;BME280;29078;41.932;25.554;2022-09-28T12:34:02;98358.56;;;26.80;34.88
43488;BME280;29078;41.932;25.554;2022-09-28T12:39:39;98380.63;;;26.96;34.53
43488;BME280;29078;41.932;25.554;2022-09-28T12:42:21;98417.25;;;27.33;33.43
43488;BME280;29078;41.932;25.554;2022-09-28T12:45:08;98418.53;;;27.36;33.29
43488;BME280;29078;41.932;25.554;2022-09-28T13:07:13;98322.06;;;27.17;32.85
43488;BME280;29078;41.932;25.554;2022-09-28T13:10:09;98408.28;;;27.72;31.54
43488;BME280;29078;41.932;25.554;2022-09-28T13:18:05;98413.88;;;27.76;30.70
43488;BME280;29078;41.932;25.554;2022-09-28T13:23:39;98412.75;;;27.85;31.15
43488;BME280;29078;41.932;25.554;2022-09-28T13:28:38;98399.84;;;28.00;31.25
43488;BME280;29078;41.932;25.554;2022-09-28T13:31:05;98365.03;;;28.02;31.15
43488;BME280;29078;41.932;25.554;2022-09-28T13:33:34;98414.97;;;28.53;30.47
43488;BME280;29078;41.932;25.554;2022-09-28T13:36:03;98315.25;;;27.98;30.01
43488;BME280;29078;41.932;25.554;2022-09-28T13:38:39;98421.59;;;28.81;29.49
43488;BME280;29078;41.932;25.554;2022-09-28T13:41:10;98346.78;;;28.45;28.99
43488;BME280;29078;41.932;25.554;2022-09-28T14:00:00;98382.56;;;29.32;28.76
43488;BME280;29078;41.932;25.554;2022-09-28T14:18:53;98288.19;;;29.33;27.41
43488;BME280;29078;41.932;25.554;2022-09-28T14:29:42;98330.63;;;29.76;27.57
43488;BME280;29078;41.932;25.554;2022-09-28T14:34:37;98408.84;;;30.20;27.94
43488;BME280;29078;41.932;25.554;2022-09-28T14:37:15;98416.50;;;30.06;28.09
43488;BME280;29078;41.932;25.554;2022-09-28T14:40:30;98419.75;;;29.99;27.62
43488;BME280;29078;41.932;25.554;2022-09-28T14:48:48;98411.50;;;29.37;27.62
43488;BME280;29078;41.932;25.554;2022-09-28T14:53:52;98412.19;;;29.25;28.37
43488;BME280;29078;41.932;25.554;2022-09-28T14:56:24;98384.84;;;28.92;29.24
43488;BME280;29078;41.932;25.554;2022-09-28T14:58:54;98349.44;;;28.63;29.83
43488;BME280;29078;41.932;25.554;2022-09-28T15:01:22;98445.75;;;28.91;29.57
43488;BME280;29078;41.932;25.554;2022-09-28T15:03:57;98420.00;;;28.80;29.84
43488;BME280;29078;41.932;25.554;2022-09-28T15:06:23;98412.53;;;28.68;30.08
43488;BME280;29078;41.932;25.554;2022-09-28T15:08:49;98402.41;;;28.39;30.22
43488;BME280;29078;41.932;25.554;2022-09-28T15:11:19;98350.84;;;27.96;30.30
43488;BME280;29078;41.932;25.554;2022-09-28T15:13:45;98340.31;;;27.77;30.73
43488;BME280;29078;41.932;25.554;2022-09-28T15:16:13;98357.38;;;27.87;31.30
43488;BME280;29078;41.932;25.554;2022-09-28T15:19:04;98370.97;;;27.78;31.91
43488;BME280;29078;41.932;25.554;2022-09-28T15:21:38;98349.25;;;27.61;31.86
43488;BME280;29078;41.932;25.554;2022-09-28T15:24:43;98425.22;;;27.95;32.22
43488;BME280;29078;41.932;25.554;2022-09-28T15:27:16;98435.75;;;27.88;32.49
43488;BME280;29078;41.932;25.554;2022-09-28T15:29:55;98419.78;;;27.69;33.20
43488;BME280;29078;41.932;25.554;2022-09-28T15:32:24;98434.44;;;27.68;33.75
43488;BME280;29078;41.932;25.554;2022-09-28T15:34:50;98346.88;;;27.02;33.96
43488;BME280;29078;41.932;25.554;2022-09-28T15:37:28;98447.63;;;27.52;33.65
43488;BME280;29078;41.932;25.554;2022-09-28T15:39:57;98330.31;;;26.73;34.00
43488;BME280;29078;41.932;25.554;2022-09-28T15:42:24;98446.31;;;27.41;33.15
43488;BME280;29078;41.932;25.554;2022-09-28T15:47:28;98452.50;;;27.33;33.42
43488;BME280;29078;41.932;25.554;2022-09-28T15:54:51;98383.16;;;26.62;34.13
43488;BME280;29078;41.932;25.554;2022-09-28T15:57:37;98457.66;;;27.04;34.45
43488;BME280;29078;41.932;25.554;2022-09-28T16:00:05;98411.53;;;26.64;34.81
43488;BME280;29078;41.932;25.554;2022-09-28T16:02:31;98405.44;;;26.58;35.01
43488;BME280;29078;41.932;25.554;2022-09-28T16:04:58;98396.28;;;26.46;35.20
43488;BME280;29078;41.932;25.554;2022-09-28T16:07:35;98456.88;;;26.81;35.40
43488;BME280;29078;41.932;25.554;2022-09-28T16:17:31;98469.63;;;26.58;36.10
43488;BME280;29078;41.932;25.554;2022-09-28T16:20:18;98471.66;;;26.52;36.61